createdAt,value
2017-03-27T00:00:52.916Z,94.96
2017-03-27T00:01:53.446Z,95.23
2017-03-27T00:02:53.982Z,95.53
2017-03-27T00:03:54.511Z,95.66
2017-03-27T00:04:55.045Z,95.56
2017-03-27T00:05:55.585Z,95.75
2017-03-27T00:06:56.110Z,96.02
2017-03-27T00:07:56.636Z,96.09
2017-03-27T00:08:57.173Z,95.69
2017-03-27T00:09:57.706Z,95.39
2017-03-27T00:10:58.236Z,94.83
2017-03-27T00:11:58.766Z,94.77
2017-03-27T00:12:59.302Z,95.18
2017-03-27T00:13:59.860Z,95.88
2017-03-27T00:15:00.372Z,96.31
2017-03-27T00:16:00.902Z,96.69
2017-03-27T00:17:01.436Z,96.99
2017-03-27T00:18:01.990Z,97.12
2017-03-27T00:19:02.501Z,97.18
2017-03-27T00:20:03.031Z,97.23
2017-03-27T00:21:03.568Z,97.50
2017-03-27T00:22:04.097Z,97.53
2017-03-27T00:23:04.636Z,97.45
2017-03-27T00:24:05.319Z,97.21
2017-03-27T00:25:05.700Z,97.42
2017-03-27T00:26:06.230Z,97.39
2017-03-27T00:27:06.907Z,97.34
2017-03-27T00:28:07.294Z,97.39
2017-03-27T00:29:07.832Z,97.36
2017-03-27T00:30:08.361Z,97.28
2017-03-27T00:31:08.899Z,97.21
2017-03-27T00:32:09.432Z,96.99
2017-03-27T00:33:09.969Z,96.96
2017-03-27T00:34:10.502Z,97.07
2017-03-27T00:35:11.038Z,97.39
2017-03-27T00:36:11.577Z,98.07
2017-03-27T00:37:12.252Z,98.50
2017-03-27T00:38:12.641Z,98.50
2017-03-27T00:39:13.182Z,98.40
2017-03-27T00:40:13.715Z,98.34
2017-03-27T00:41:14.395Z,98.15
2017-03-27T00:42:14.783Z,97.93
2017-03-27T00:43:15.308Z,97.69
2017-03-27T00:44:15.835Z,97.47
2017-03-27T00:45:16.370Z,97.31
2017-03-27T00:46:16.916Z,97.31
2017-03-27T00:47:17.461Z,97.45
2017-03-27T00:48:17.974Z,97.47
2017-03-27T00:49:18.504Z,97.47
2017-03-27T00:50:19.040Z,97.42
2017-03-27T00:51:19.570Z,97.36
2017-03-27T00:52:20.255Z,97.31
2017-03-27T00:53:20.634Z,97.10
2017-03-27T00:54:21.171Z,97.07
2017-03-27T00:55:21.846Z,97.21
2017-03-27T00:56:22.241Z,97.34
2017-03-27T00:57:22.766Z,97.36
2017-03-27T00:58:23.296Z,97.39
2017-03-27T00:59:23.837Z,97.64
2017-03-27T01:00:24.361Z,98.12
2017-03-27T01:01:24.893Z,98.53
2017-03-27T01:02:25.435Z,98.64
2017-03-27T01:03:25.961Z,98.69
2017-03-27T01:04:26.491Z,98.72
2017-03-27T01:05:27.024Z,98.72
2017-03-27T01:06:27.558Z,98.48
2017-03-27T01:07:28.093Z,98.31
2017-03-27T01:08:28.628Z,98.02
2017-03-27T01:09:29.156Z,97.72
2017-03-27T01:10:29.687Z,97.34
2017-03-27T01:11:30.218Z,97.21
2017-03-27T01:12:30.759Z,97.31
2017-03-27T01:13:31.284Z,97.34
2017-03-27T01:14:31.971Z,97.42
2017-03-27T01:15:32.349Z,97.42
2017-03-27T01:16:32.880Z,97.47
2017-03-27T01:17:33.416Z,97.50
2017-03-27T01:18:33.952Z,97.50
2017-03-27T01:19:34.488Z,97.69
2017-03-27T01:20:35.180Z,97.88
2017-03-27T01:21:35.565Z,98.02
2017-03-27T01:22:36.100Z,97.91
2017-03-27T01:23:36.638Z,97.85
2017-03-27T01:24:37.320Z,97.88
2017-03-27T01:25:37.705Z,98.02
2017-03-27T01:26:38.235Z,98.02
2017-03-27T01:27:38.772Z,98.07
2017-03-27T01:28:39.305Z,98.23
2017-03-27T01:29:39.841Z,98.48
2017-03-27T01:30:40.370Z,98.66
2017-03-27T01:31:40.899Z,98.72
2017-03-27T01:32:41.441Z,98.88
2017-03-27T01:33:42.107Z,98.94
2017-03-27T01:34:42.700Z,99.13
2017-03-27T01:35:43.025Z,99.18
2017-03-27T01:36:43.559Z,99.26
2017-03-27T01:37:44.096Z,99.59
2017-03-27T01:38:44.626Z,99.53
2017-03-27T01:39:45.160Z,99.59
2017-03-27T01:40:45.689Z,99.53
2017-03-27T01:41:46.229Z,99.51
2017-03-27T01:42:46.761Z,99.43
2017-03-27T01:43:47.316Z,99.34
2017-03-27T01:44:47.826Z,99.21
2017-03-27T01:45:48.365Z,99.07
2017-03-27T01:46:48.901Z,98.96
2017-03-27T01:47:49.427Z,98.80
2017-03-27T01:48:49.958Z,98.66
2017-03-27T01:49:50.504Z,98.45
2017-03-27T01:50:51.024Z,98.29
2017-03-27T01:51:51.555Z,98.23
2017-03-27T01:52:52.087Z,98.23
2017-03-27T01:53:52.621Z,98.18
2017-03-27T01:54:53.151Z,98.12
2017-03-27T01:55:53.683Z,98.12
2017-03-27T01:56:54.211Z,98.12
2017-03-27T01:57:54.748Z,98.26
2017-03-27T01:58:55.277Z,98.29
2017-03-27T01:59:55.815Z,98.40
2017-03-27T02:00:56.350Z,98.42
2017-03-27T02:01:56.887Z,98.48
2017-03-27T02:02:57.421Z,98.42
2017-03-27T02:03:57.962Z,98.40
2017-03-27T02:04:58.648Z,98.21
2017-03-27T02:05:59.039Z,98.15
2017-03-27T02:06:59.576Z,98.12
2017-03-27T02:08:00.095Z,98.10
2017-03-27T02:09:00.625Z,98.12
2017-03-27T02:10:01.155Z,98.12
2017-03-27T02:11:01.699Z,98.15
2017-03-27T02:12:02.223Z,98.21
2017-03-27T02:13:02.754Z,98.42
2017-03-27T02:14:03.289Z,98.55
2017-03-27T02:15:03.816Z,98.72
2017-03-27T02:16:04.352Z,98.75
2017-03-27T02:17:04.888Z,98.80
2017-03-27T02:18:05.416Z,98.88
2017-03-27T02:19:05.965Z,98.96
2017-03-27T02:20:06.485Z,99.07
2017-03-27T02:21:07.018Z,99.13
2017-03-27T02:22:07.556Z,99.21
2017-03-27T02:23:08.083Z,99.23
2017-03-27T02:24:08.616Z,99.34
2017-03-27T02:25:09.155Z,99.67
2017-03-27T02:26:09.680Z,99.70
2017-03-27T02:27:10.216Z,99.70
2017-03-27T02:28:10.750Z,99.75
2017-03-27T02:29:11.433Z,99.78
2017-03-27T02:30:11.813Z,99.75
2017-03-27T02:31:12.344Z,99.75
2017-03-27T02:32:12.879Z,99.67
2017-03-27T02:33:13.408Z,99.62
2017-03-27T02:34:13.939Z,99.56
2017-03-27T02:35:14.474Z,99.62
2017-03-27T02:36:15.008Z,99.70
2017-03-27T02:37:15.539Z,99.72
2017-03-27T02:38:16.078Z,99.70
2017-03-27T02:39:16.604Z,99.72
2017-03-27T02:40:17.163Z,99.75
2017-03-27T02:41:17.823Z,99.75
2017-03-27T02:42:18.221Z,99.72
2017-03-27T02:43:18.743Z,99.72
2017-03-27T02:44:19.285Z,99.78
2017-03-27T02:45:19.819Z,99.81
2017-03-27T02:46:20.354Z,99.78
2017-03-27T02:47:20.882Z,99.81
2017-03-27T02:48:21.416Z,99.86
2017-03-27T02:49:21.957Z,99.83
2017-03-27T02:50:22.478Z,99.78
2017-03-27T02:51:23.013Z,99.75
2017-03-27T02:52:23.548Z,99.72
2017-03-27T02:53:24.081Z,99.70
2017-03-27T02:54:24.612Z,99.64
2017-03-27T02:55:25.151Z,99.56
2017-03-27T02:56:25.681Z,99.45
2017-03-27T02:57:26.359Z,99.37
2017-03-27T02:58:26.741Z,99.34
2017-03-27T02:59:27.273Z,99.32
2017-03-27T03:00:27.801Z,99.34
2017-03-27T03:01:28.491Z,99.48
2017-03-27T03:02:28.869Z,99.45
2017-03-27T03:03:29.413Z,99.45
2017-03-27T03:04:29.935Z,99.43
2017-03-27T03:05:30.468Z,99.43
2017-03-27T03:06:30.999Z,99.40
2017-03-27T03:07:31.544Z,99.40
2017-03-27T03:08:32.074Z,99.45
2017-03-27T03:09:32.601Z,99.53
2017-03-27T03:10:33.135Z,99.51
2017-03-27T03:11:33.680Z,99.59
2017-03-27T03:12:34.205Z,99.62
2017-03-27T03:13:34.742Z,99.62
2017-03-27T03:14:35.271Z,99.67
2017-03-27T03:15:35.954Z,99.75
2017-03-27T03:16:36.339Z,99.83
2017-03-27T03:17:37.018Z,99.81
2017-03-27T03:18:37.549Z,99.83
2017-03-27T03:19:37.938Z,99.83
2017-03-27T03:20:38.469Z,99.86
2017-03-27T03:21:38.999Z,99.92
2017-03-27T03:22:39.532Z,99.94
2017-03-27T03:23:40.067Z,99.96
2017-03-27T03:24:40.600Z,99.99
2017-03-27T03:25:41.138Z,99.99
2017-03-27T03:26:41.672Z,99.99
2017-03-27T03:27:42.215Z,99.99
2017-03-27T03:28:42.747Z,99.99
2017-03-27T03:29:43.276Z,99.99
2017-03-27T03:30:43.811Z,99.99
2017-03-27T03:31:44.348Z,99.99
2017-03-27T03:32:44.873Z,99.99
2017-03-27T03:33:45.405Z,99.99
2017-03-27T03:34:45.940Z,99.99
2017-03-27T03:35:46.467Z,99.99
2017-03-27T03:36:47.004Z,99.99
2017-03-27T03:37:47.544Z,99.99
2017-03-27T03:38:48.065Z,99.99
2017-03-27T03:39:48.596Z,99.99
2017-03-27T03:40:49.133Z,99.99
2017-03-27T03:41:49.665Z,99.99
2017-03-27T03:42:50.198Z,99.99
2017-03-27T03:43:50.732Z,99.99
2017-03-27T03:44:51.414Z,99.99
2017-03-27T03:45:51.800Z,99.99
2017-03-27T03:46:52.328Z,99.99
2017-03-27T03:47:52.861Z,99.99
2017-03-27T03:48:53.396Z,99.99
2017-03-27T03:49:53.925Z,99.99
2017-03-27T03:50:54.456Z,99.99
2017-03-27T03:51:54.997Z,99.99
2017-03-27T03:52:55.548Z,99.99
2017-03-27T03:53:56.055Z,99.99
2017-03-27T03:54:56.587Z,99.99
2017-03-27T03:55:57.128Z,99.99
2017-03-27T03:56:57.649Z,99.99
2017-03-27T03:57:58.331Z,99.99
2017-03-27T03:58:58.711Z,99.99
2017-03-27T03:59:59.397Z,99.99
2017-03-27T04:00:59.781Z,99.99
2017-03-27T04:02:00.315Z,99.94
2017-03-27T04:03:00.848Z,99.75
2017-03-27T04:04:01.532Z,99.51
2017-03-27T04:05:01.931Z,99.32
2017-03-27T04:06:02.604Z,99.02
2017-03-27T04:07:02.993Z,98.80
2017-03-27T04:08:03.546Z,98.77
2017-03-27T04:09:04.090Z,98.80
2017-03-27T04:10:04.621Z,98.88
2017-03-27T04:11:05.158Z,98.96
2017-03-27T04:12:05.697Z,99.04
2017-03-27T04:13:06.222Z,99.13
2017-03-27T04:14:06.749Z,99.21
2017-03-27T04:15:07.287Z,99.26
2017-03-27T04:16:07.815Z,99.29
2017-03-27T04:17:08.350Z,99.18
2017-03-27T04:18:08.885Z,99.18
2017-03-27T04:19:09.417Z,99.18
2017-03-27T04:20:09.956Z,99.21
2017-03-27T04:21:10.486Z,99.21
2017-03-27T04:22:11.013Z,99.15
2017-03-27T04:23:11.694Z,99.18
2017-03-27T04:24:12.094Z,99.21
2017-03-27T04:25:12.621Z,99.34
2017-03-27T04:26:13.153Z,99.32
2017-03-27T04:27:13.684Z,99.32
2017-03-27T04:28:14.218Z,99.34
2017-03-27T04:29:14.752Z,99.32
2017-03-27T04:30:15.286Z,99.32
2017-03-27T04:31:15.817Z,99.32
2017-03-27T04:32:16.351Z,99.29
2017-03-27T04:33:16.887Z,99.37
2017-03-27T04:34:17.418Z,99.43
2017-03-27T04:35:17.948Z,99.48
2017-03-27T04:36:18.488Z,99.59
2017-03-27T04:37:19.018Z,99.72
2017-03-27T04:38:19.550Z,99.92
2017-03-27T04:39:20.081Z,99.99
2017-03-27T04:40:20.610Z,99.99
2017-03-27T04:41:21.149Z,99.99
2017-03-27T04:42:21.683Z,99.99
2017-03-27T04:43:22.216Z,99.99
2017-03-27T04:44:22.747Z,99.99
2017-03-27T04:45:23.279Z,99.99
2017-03-27T04:46:23.813Z,99.99
2017-03-27T04:47:24.346Z,99.99
2017-03-27T04:48:24.883Z,99.99
2017-03-27T04:49:25.425Z,99.99
2017-03-27T04:50:25.959Z,99.99
2017-03-27T04:51:26.497Z,99.99
2017-03-27T04:52:27.181Z,99.99
2017-03-27T04:53:27.717Z,99.99
2017-03-27T04:54:28.094Z,99.99
2017-03-27T04:55:28.640Z,99.99
2017-03-27T04:56:29.179Z,99.99
2017-03-27T04:57:29.695Z,99.99
2017-03-27T04:58:30.231Z,99.96
2017-03-27T04:59:30.760Z,99.92
2017-03-27T05:00:31.291Z,99.81
2017-03-27T05:01:31.827Z,99.70
2017-03-27T05:02:32.361Z,99.59
2017-03-27T05:03:33.035Z,99.59
2017-03-27T05:04:33.427Z,99.56
2017-03-27T05:05:33.957Z,99.56
2017-03-27T05:06:34.487Z,99.59
2017-03-27T05:07:35.024Z,99.62
2017-03-27T05:08:35.565Z,99.64
2017-03-27T05:09:36.087Z,99.75
2017-03-27T05:10:36.773Z,99.81
2017-03-27T05:11:37.151Z,99.83
2017-03-27T05:12:37.694Z,99.86
2017-03-27T05:13:38.223Z,99.92
2017-03-27T05:14:38.746Z,99.99
2017-03-27T05:15:39.284Z,99.99
2017-03-27T05:16:39.818Z,99.99
2017-03-27T05:17:40.496Z,99.99
2017-03-27T05:18:40.895Z,99.99
2017-03-27T05:19:41.420Z,99.99
2017-03-27T05:20:41.951Z,99.99
2017-03-27T05:21:42.493Z,99.99
2017-03-27T05:22:43.013Z,99.99
2017-03-27T05:23:43.544Z,99.99
2017-03-27T05:24:44.076Z,99.99
2017-03-27T05:25:44.619Z,99.99
2017-03-27T05:26:45.145Z,99.99
2017-03-27T05:27:45.684Z,99.99
2017-03-27T05:28:46.375Z,99.99
2017-03-27T05:29:46.755Z,99.99
2017-03-27T05:30:47.289Z,99.99
2017-03-27T05:31:47.975Z,99.99
2017-03-27T05:32:48.364Z,99.99
2017-03-27T05:33:48.899Z,99.99
2017-03-27T05:34:49.430Z,99.99
2017-03-27T05:35:49.965Z,99.99
2017-03-27T05:36:50.499Z,99.99
2017-03-27T05:37:51.032Z,99.99
2017-03-27T05:38:51.715Z,99.99
2017-03-27T05:39:52.097Z,99.99
2017-03-27T05:40:52.784Z,99.99
2017-03-27T05:41:53.165Z,99.99
2017-03-27T05:42:53.697Z,99.99
2017-03-27T05:43:54.376Z,99.99
2017-03-27T05:44:54.762Z,99.99
2017-03-27T05:45:55.292Z,99.99
2017-03-27T05:46:55.833Z,99.99
2017-03-27T05:47:56.359Z,99.99
2017-03-27T05:48:56.901Z,99.99
2017-03-27T05:49:57.426Z,99.99
2017-03-27T05:50:58.107Z,99.99
2017-03-27T05:51:58.641Z,99.99
2017-03-27T05:52:59.172Z,99.99
2017-03-27T05:53:59.552Z,99.99
2017-03-27T05:55:00.085Z,99.99
2017-03-27T05:56:00.619Z,99.99
2017-03-27T05:57:01.148Z,99.99
2017-03-27T05:58:01.693Z,99.99
2017-03-27T05:59:02.366Z,99.99
2017-03-27T06:00:02.756Z,99.99
2017-03-27T06:01:03.287Z,99.99
2017-03-27T06:02:03.817Z,99.99
2017-03-27T06:03:04.353Z,99.99
2017-03-27T06:04:04.881Z,99.99
2017-03-27T06:05:05.424Z,99.99
2017-03-27T06:06:05.946Z,99.99
2017-03-27T06:07:06.479Z,99.99
2017-03-27T06:08:07.022Z,99.99
2017-03-27T06:09:07.594Z,99.99
2017-03-27T06:10:08.079Z,99.45
2017-03-27T06:11:08.617Z,98.29
2017-03-27T06:12:09.154Z,97.10
2017-03-27T06:13:09.692Z,94.69
2017-03-27T06:14:10.227Z,92.30
2017-03-27T06:15:10.766Z,91.97
2017-03-27T06:16:11.299Z,91.63
2017-03-27T06:17:11.834Z,91.52
2017-03-27T06:18:12.361Z,91.79
2017-03-27T06:19:12.896Z,92.11
2017-03-27T06:20:13.428Z,92.40
2017-03-27T06:21:13.957Z,91.63
2017-03-27T06:22:14.496Z,91.82
2017-03-27T06:23:15.023Z,91.79
2017-03-27T06:24:15.559Z,91.76
2017-03-27T06:25:16.092Z,91.47
2017-03-27T06:26:16.625Z,91.25
2017-03-27T06:27:17.158Z,91.17
2017-03-27T06:28:17.842Z,91.09
2017-03-27T06:29:18.400Z,90.90
2017-03-27T06:30:18.762Z,90.66
2017-03-27T06:31:19.297Z,90.58
2017-03-27T06:32:19.829Z,90.23
2017-03-27T06:33:20.362Z,90.66
2017-03-27T06:34:20.892Z,90.47
2017-03-27T06:35:21.433Z,90.07
2017-03-27T06:36:21.961Z,89.99
2017-03-27T06:37:22.504Z,88.65
2017-03-27T06:38:23.172Z,88.36
2017-03-27T06:39:23.560Z,86.87
2017-03-27T06:40:24.089Z,85.96
2017-03-27T06:41:24.619Z,85.72
2017-03-27T06:42:25.157Z,84.52
2017-03-27T06:43:25.688Z,83.89
2017-03-27T06:44:26.221Z,83.28
2017-03-27T06:45:26.750Z,83.09
2017-03-27T06:46:27.285Z,82.59
2017-03-27T06:47:27.817Z,81.92
2017-03-27T06:48:28.354Z,81.68
2017-03-27T06:49:28.887Z,81.74
2017-03-27T06:50:29.579Z,81.02
2017-03-27T06:51:29.959Z,80.02
2017-03-27T06:52:30.491Z,80.92
2017-03-27T06:53:31.027Z,79.97
2017-03-27T06:54:31.573Z,80.05
2017-03-27T06:55:32.097Z,78.91
2017-03-27T06:56:32.630Z,78.39
2017-03-27T06:57:33.168Z,78.15
2017-03-27T06:58:33.703Z,79.17
2017-03-27T06:59:34.233Z,78.15
2017-03-27T07:00:34.763Z,78.57
2017-03-27T07:01:35.305Z,76.49
2017-03-27T07:02:35.831Z,76.86
2017-03-27T07:03:36.369Z,77.49
2017-03-27T07:04:36.897Z,77.17
2017-03-27T07:05:37.431Z,77.94
2017-03-27T07:06:37.959Z,77.97
2017-03-27T07:07:38.489Z,76.78
2017-03-27T07:08:39.027Z,75.39
2017-03-27T07:09:39.704Z,73.40
2017-03-27T07:10:40.090Z,74.26
2017-03-27T07:11:40.619Z,75.21
2017-03-27T07:12:41.150Z,73.16
2017-03-27T07:13:41.690Z,74.29
2017-03-27T07:14:42.369Z,72.72
2017-03-27T07:15:42.900Z,74.03
2017-03-27T07:16:43.287Z,75.07
2017-03-27T07:17:43.818Z,75.29
2017-03-27T07:18:44.351Z,74.47
2017-03-27T07:19:44.883Z,74.47
2017-03-27T07:20:45.420Z,74.03
2017-03-27T07:21:45.944Z,73.06
2017-03-27T07:22:46.480Z,74.44
2017-03-27T07:23:47.165Z,71.31
2017-03-27T07:24:47.546Z,72.69
2017-03-27T07:25:48.075Z,68.06
2017-03-27T07:26:48.611Z,69.28
2017-03-27T07:27:49.152Z,68.45
2017-03-27T07:28:49.674Z,66.84
2017-03-27T07:29:50.212Z,68.29
2017-03-27T07:30:50.741Z,68.58
2017-03-27T07:31:51.273Z,67.08
2017-03-27T07:32:51.808Z,66.92
2017-03-27T07:33:52.339Z,68.79
2017-03-27T07:34:52.874Z,71.31
2017-03-27T07:35:53.558Z,68.76
2017-03-27T07:36:53.953Z,66.92
2017-03-27T07:37:54.491Z,68.16
2017-03-27T07:38:55.023Z,67.08
2017-03-27T07:39:55.559Z,65.29
2017-03-27T07:40:56.093Z,67.28
2017-03-27T07:41:56.622Z,66.33
2017-03-27T07:42:57.154Z,68.66
2017-03-27T07:43:57.695Z,67.62
2017-03-27T07:44:58.223Z,65.78
2017-03-27T07:45:58.753Z,64.95
2017-03-27T07:46:59.286Z,61.66
2017-03-27T07:47:59.815Z,62.07
2017-03-27T07:49:00.355Z,62.40
2017-03-27T07:50:00.885Z,62.74
2017-03-27T07:51:01.413Z,62.12
2017-03-27T07:52:01.940Z,60.09
2017-03-27T07:53:02.475Z,60.05
2017-03-27T07:54:03.009Z,61.53
2017-03-27T07:55:03.544Z,60.97
2017-03-27T07:56:04.072Z,58.84
2017-03-27T07:57:04.611Z,60.33
2017-03-27T07:58:05.138Z,59.53
2017-03-27T07:59:05.670Z,58.17
2017-03-27T08:00:06.354Z,57.95
2017-03-27T08:01:06.735Z,58.38
2017-03-27T08:02:07.271Z,60.71
2017-03-27T08:03:07.811Z,55.22
2017-03-27T08:04:08.343Z,56.08
2017-03-27T08:05:08.871Z,57.30
2017-03-27T08:06:09.550Z,54.48
2017-03-27T08:07:10.102Z,55.22
2017-03-27T08:08:10.468Z,56.46
2017-03-27T08:09:10.994Z,54.94
2017-03-27T08:10:11.533Z,55.91
2017-03-27T08:11:12.060Z,55.63
2017-03-27T08:12:12.591Z,56.29
2017-03-27T08:13:13.126Z,56.54
2017-03-27T08:14:13.658Z,53.54
2017-03-27T08:15:14.194Z,54.45
2017-03-27T08:16:14.754Z,54.99
2017-03-27T08:17:15.257Z,54.61
2017-03-27T08:18:15.791Z,54.20
2017-03-27T08:19:16.334Z,52.68
2017-03-27T08:20:16.878Z,51.99
2017-03-27T08:21:17.405Z,51.06
2017-03-27T08:22:17.940Z,51.74
2017-03-27T08:23:18.620Z,52.45
2017-03-27T08:24:19.153Z,49.02
2017-03-27T08:25:19.561Z,50.10
2017-03-27T08:26:20.073Z,50.93
2017-03-27T08:27:20.602Z,50.02
2017-03-27T08:28:21.135Z,54.37
2017-03-27T08:29:21.682Z,48.11
2017-03-27T08:30:22.198Z,47.38
2017-03-27T08:31:22.732Z,48.54
2017-03-27T08:32:23.261Z,46.05
2017-03-27T08:33:23.795Z,46.93
2017-03-27T08:34:24.326Z,47.56
2017-03-27T08:35:24.862Z,47.86
2017-03-27T08:36:25.397Z,48.14
2017-03-27T08:37:25.927Z,46.05
2017-03-27T08:38:26.474Z,46.45
2017-03-27T08:39:26.995Z,47.38
2017-03-27T08:40:27.528Z,46.45
2017-03-27T08:41:28.063Z,46.20
2017-03-27T08:42:28.597Z,47.68
2017-03-27T08:43:29.127Z,48.16
2017-03-27T08:44:29.656Z,48.44
2017-03-27T08:45:30.188Z,48.89
2017-03-27T08:46:31.167Z,48.59
2017-03-27T08:47:31.252Z,46.35
2017-03-27T08:48:31.783Z,47.08
2017-03-27T08:49:32.312Z,48.39
2017-03-27T08:50:32.837Z,47.98
2017-03-27T08:51:33.377Z,46.68
2017-03-27T08:52:33.909Z,47.63
2017-03-27T08:53:34.439Z,49.62
2017-03-27T08:54:34.976Z,46.00
2017-03-27T08:55:35.503Z,46.25
2017-03-27T08:56:36.036Z,46.58
2017-03-27T08:57:36.567Z,43.90
2017-03-27T08:58:37.103Z,45.40
2017-03-27T08:59:37.637Z,45.05
2017-03-27T09:00:38.180Z,44.93
2017-03-27T09:01:38.713Z,45.68
2017-03-27T09:02:39.246Z,45.30
2017-03-27T09:03:39.785Z,43.40
2017-03-27T09:04:40.321Z,42.87
2017-03-27T09:05:40.848Z,44.10
2017-03-27T09:06:41.387Z,44.52
2017-03-27T09:07:41.912Z,46.93
2017-03-27T09:08:42.442Z,44.35
2017-03-27T09:09:42.975Z,44.57
2017-03-27T09:10:43.520Z,42.58
2017-03-27T09:11:44.040Z,42.75
2017-03-27T09:12:44.570Z,41.73
2017-03-27T09:13:45.105Z,42.12
2017-03-27T09:14:45.645Z,40.73
2017-03-27T09:15:46.468Z,39.91
2017-03-27T09:16:46.707Z,40.85
2017-03-27T09:17:47.236Z,40.43
2017-03-27T09:18:47.772Z,42.18
2017-03-27T09:19:48.302Z,39.17
2017-03-27T09:20:48.835Z,41.08
2017-03-27T09:21:49.387Z,42.45
2017-03-27T09:22:49.905Z,38.33
2017-03-27T09:23:50.435Z,39.59
2017-03-27T09:24:50.978Z,39.64
2017-03-27T09:25:51.505Z,37.76
2017-03-27T09:26:52.043Z,36.92
2017-03-27T09:27:52.579Z,38.43
2017-03-27T09:28:53.100Z,36.47
2017-03-27T09:29:53.638Z,37.51
2017-03-27T09:30:54.181Z,35.64
2017-03-27T09:31:54.707Z,38.38
2017-03-27T09:32:55.235Z,40.04
2017-03-27T09:33:55.770Z,41.50
2017-03-27T09:34:56.296Z,38.38
2017-03-27T09:35:56.831Z,34.92
2017-03-27T09:36:57.379Z,36.08
2017-03-27T09:37:57.895Z,37.29
2017-03-27T09:38:58.427Z,37.98
2017-03-27T09:39:58.965Z,36.47
2017-03-27T09:40:59.497Z,34.92
2017-03-27T09:42:00.054Z,37.06
2017-03-27T09:43:00.566Z,36.42
2017-03-27T09:44:01.104Z,37.09
2017-03-27T09:45:01.636Z,37.29
2017-03-27T09:46:02.172Z,37.34
2017-03-27T09:47:02.700Z,37.02
2017-03-27T09:48:03.239Z,34.67
2017-03-27T09:49:03.765Z,36.18
2017-03-27T09:50:04.297Z,34.99
2017-03-27T09:51:04.829Z,34.45
2017-03-27T09:52:05.366Z,33.91
2017-03-27T09:53:05.897Z,36.50
2017-03-27T09:54:06.432Z,35.29
2017-03-27T09:55:06.965Z,33.64
2017-03-27T09:56:07.495Z,33.27
2017-03-27T09:57:08.034Z,36.67
2017-03-27T09:58:08.563Z,33.71
2017-03-27T09:59:09.095Z,34.73
2017-03-27T10:00:09.643Z,29.31
2017-03-27T10:01:10.152Z,31.48
2017-03-27T10:02:10.686Z,30.97
2017-03-27T10:03:11.214Z,32.29
2017-03-27T10:04:11.749Z,30.53
2017-03-27T10:05:12.279Z,33.32
2017-03-27T10:06:12.821Z,31.46
2017-03-27T10:07:13.352Z,30.87
2017-03-27T10:08:13.882Z,27.96
2017-03-27T10:09:14.415Z,32.66
2017-03-27T10:10:14.939Z,31.70
2017-03-27T10:11:15.476Z,31.48
2017-03-27T10:12:16.156Z,28.29
2017-03-27T10:13:16.543Z,29.59
2017-03-27T10:14:17.071Z,32.10
2017-03-27T10:15:17.604Z,32.79
2017-03-27T10:16:18.143Z,29.67
2017-03-27T10:17:18.669Z,29.24
2017-03-27T10:18:19.208Z,31.00
2017-03-27T10:19:19.889Z,30.39
2017-03-27T10:20:20.270Z,27.46
2017-03-27T10:21:20.816Z,27.80
2017-03-27T10:22:21.364Z,28.96
2017-03-27T10:23:21.869Z,27.96
2017-03-27T10:24:22.408Z,30.68
2017-03-27T10:25:22.939Z,33.27
2017-03-27T10:26:23.474Z,34.26
2017-03-27T10:27:24.006Z,27.54
2017-03-27T10:28:24.538Z,30.04
2017-03-27T10:29:25.070Z,30.22
2017-03-27T10:30:25.605Z,30.92
2017-03-27T10:31:26.143Z,29.65
2017-03-27T10:32:26.668Z,28.80
2017-03-27T10:33:27.199Z,27.82
2017-03-27T10:34:27.730Z,29.53
2017-03-27T10:35:28.261Z,31.88
2017-03-27T10:36:28.793Z,28.60
2017-03-27T10:37:29.321Z,27.50
2017-03-27T10:38:29.860Z,27.40
2017-03-27T10:39:30.534Z,31.85
2017-03-27T10:40:30.919Z,31.14
2017-03-27T10:41:31.457Z,33.05
2017-03-27T10:42:31.983Z,30.53
2017-03-27T10:43:32.514Z,29.20
2017-03-27T10:44:33.044Z,29.22
2017-03-27T10:45:33.580Z,28.24
2017-03-27T10:46:34.116Z,25.98
2017-03-27T10:47:34.641Z,27.30
2017-03-27T10:48:35.177Z,26.04
2017-03-27T10:49:35.731Z,29.20
2017-03-27T10:50:36.260Z,26.94
2017-03-27T10:51:36.769Z,26.47
2017-03-27T10:52:37.301Z,26.24
2017-03-27T10:53:37.855Z,26.16
2017-03-27T10:54:38.364Z,26.47
2017-03-27T10:55:38.903Z,25.52
2017-03-27T10:56:39.429Z,29.95
2017-03-27T10:57:39.959Z,27.04
2017-03-27T10:58:40.503Z,28.41
2017-03-27T10:59:41.031Z,29.18
2017-03-27T11:00:41.558Z,28.10
2017-03-27T11:01:42.090Z,29.63
2017-03-27T11:02:42.626Z,28.68
2017-03-27T11:03:43.163Z,30.09
2017-03-27T11:04:43.694Z,28.70
2017-03-27T11:05:44.235Z,28.56
2017-03-27T11:06:44.768Z,27.76
2017-03-27T11:07:45.302Z,29.28
2017-03-27T11:08:45.833Z,29.53
2017-03-27T11:09:46.369Z,29.06
2017-03-27T11:10:46.920Z,28.02
2017-03-27T11:11:47.429Z,28.07
2017-03-27T11:12:47.964Z,28.34
2017-03-27T11:13:48.496Z,27.68
2017-03-27T11:14:49.032Z,29.06
2017-03-27T11:15:49.569Z,28.05
2017-03-27T11:16:50.091Z,30.75
2017-03-27T11:17:50.623Z,27.40
2017-03-27T11:18:51.155Z,27.04
2017-03-27T11:19:51.684Z,27.40
2017-03-27T11:20:52.217Z,25.75
2017-03-27T11:21:52.746Z,26.59
2017-03-27T11:22:53.279Z,27.10
2017-03-27T11:23:53.812Z,26.77
2017-03-27T11:24:54.353Z,27.69
2017-03-27T11:25:54.887Z,27.02
2017-03-27T11:26:55.409Z,27.55
2017-03-27T11:27:55.954Z,26.80
2017-03-27T11:28:56.475Z,27.26
2017-03-27T11:29:57.155Z,27.42
2017-03-27T11:30:57.538Z,27.83
2017-03-27T11:31:58.073Z,25.47
2017-03-27T11:32:58.601Z,31.27
2017-03-27T11:33:59.128Z,26.86
2017-03-27T11:34:59.662Z,30.92
2017-03-27T11:36:00.197Z,26.14
2017-03-27T11:37:00.729Z,26.61
2017-03-27T11:38:01.260Z,27.02
2017-03-27T11:39:01.800Z,26.16
2017-03-27T11:40:02.322Z,26.47
2017-03-27T11:41:02.859Z,26.96
2017-03-27T11:42:03.387Z,29.92
2017-03-27T11:43:03.922Z,25.14
2017-03-27T11:44:04.601Z,25.96
2017-03-27T11:45:04.986Z,26.17
2017-03-27T11:46:05.519Z,25.44
2017-03-27T11:47:06.062Z,24.00
2017-03-27T11:48:06.603Z,24.07
2017-03-27T11:49:07.138Z,24.95
2017-03-27T11:50:07.670Z,25.86
2017-03-27T11:51:08.201Z,28.68
2017-03-27T11:52:08.761Z,26.33
2017-03-27T11:53:09.265Z,29.16
2017-03-27T11:54:09.797Z,27.76
2017-03-27T11:55:10.337Z,24.30
2017-03-27T11:56:10.865Z,24.64
2017-03-27T11:57:11.394Z,25.55
2017-03-27T11:58:11.928Z,24.86
2017-03-27T11:59:12.465Z,24.53
2017-03-27T12:00:12.992Z,26.82
2017-03-27T12:01:13.525Z,27.96
2017-03-27T12:02:14.054Z,24.94
2017-03-27T12:03:14.590Z,27.82
2017-03-27T12:04:15.145Z,24.17
2017-03-27T12:05:15.674Z,26.33
2017-03-27T12:06:16.188Z,29.46
2017-03-27T12:07:16.719Z,31.02
2017-03-27T12:08:17.252Z,28.74
2017-03-27T12:09:17.783Z,24.51
2017-03-27T12:10:18.312Z,26.78
2017-03-27T12:11:18.848Z,28.18
2017-03-27T12:12:19.378Z,24.86
2017-03-27T12:13:19.906Z,28.34
2017-03-27T12:14:20.440Z,26.45
2017-03-27T12:15:20.974Z,23.80
2017-03-27T12:16:21.507Z,23.76
2017-03-27T12:17:22.038Z,23.40
2017-03-27T12:18:22.577Z,25.49
2017-03-27T12:19:23.107Z,24.64
2017-03-27T12:20:23.643Z,24.94
2017-03-27T12:21:24.167Z,25.14
2017-03-27T12:22:24.706Z,24.66
2017-03-27T12:23:25.236Z,25.17
2017-03-27T12:24:25.779Z,24.69
2017-03-27T12:25:26.294Z,24.87
2017-03-27T12:26:26.822Z,24.97
2017-03-27T12:27:27.359Z,25.73
2017-03-27T12:28:27.896Z,25.52
2017-03-27T12:29:28.432Z,27.60
2017-03-27T12:30:29.123Z,25.14
2017-03-27T12:31:29.506Z,27.02
2017-03-27T12:32:30.041Z,27.40
2017-03-27T12:33:30.574Z,25.45
2017-03-27T12:34:31.106Z,24.07
2017-03-27T12:35:31.638Z,26.33
2017-03-27T12:36:32.188Z,24.09
2017-03-27T12:37:32.701Z,23.67
2017-03-27T12:38:33.236Z,24.64
2017-03-27T12:39:33.768Z,24.24
2017-03-27T12:40:34.300Z,24.24
2017-03-27T12:41:34.833Z,24.76
2017-03-27T12:42:35.365Z,24.41
2017-03-27T12:43:35.891Z,26.96
2017-03-27T12:44:36.443Z,25.78
2017-03-27T12:45:36.952Z,25.26
2017-03-27T12:46:37.636Z,25.92
2017-03-27T12:47:38.164Z,25.90
2017-03-27T12:48:38.559Z,25.78
2017-03-27T12:49:39.084Z,26.77
2017-03-27T12:50:39.619Z,24.09
2017-03-27T12:51:40.151Z,24.53
2017-03-27T12:52:40.682Z,24.32
2017-03-27T12:53:41.216Z,24.84
2017-03-27T12:54:41.763Z,23.52
2017-03-27T12:55:42.284Z,24.00
2017-03-27T12:56:42.812Z,26.19
2017-03-27T12:57:43.344Z,23.29
2017-03-27T12:58:43.877Z,23.82
2017-03-27T12:59:44.406Z,25.70